sensor_id;sensor_type;location;lat;lon;timestamp;temperature;humidity
82788;DHT22;72529;51.786;4.662;2024-03-25T00:01:03;6.95;77.88
82788;DHT22;72529;51.786;4.662;2024-03-25T00:03:28;6.93;77.87
82788;DHT22;72529;51.786;4.662;2024-03-25T00:05:54;6.92;77.98
82788;DHT22;72529;51.786;4.662;2024-03-25T00:08:20;6.91;78.08
82788;DHT22;72529;51.786;4.662;2024-03-25T00:10:45;6.91;78.01
82788;DHT22;72529;51.786;4.662;2024-03-25T00:13:10;6.88;77.94
82788;DHT22;72529;51.786;4.662;2024-03-25T00:15:36;6.88;78.04
82788;DHT22;72529;51.786;4.662;2024-03-25T00:18:03;6.86;78.14
82788;DHT22;72529;51.786;4.662;2024-03-25T00:20:29;6.84;77.97
82788;DHT22;72529;51.786;4.662;2024-03-25T00:22:54;6.82;78.08
82788;DHT22;72529;51.786;4.662;2024-03-25T00:25:20;6.76;78.14
82788;DHT22;72529;51.786;4.662;2024-03-25T00:27:45;6.76;78.22
82788;DHT22;72529;51.786;4.662;2024-03-25T00:30:11;6.71;78.24
82788;DHT22;72529;51.786;4.662;2024-03-25T00:32:37;6.62;78.18
82788;DHT22;72529;51.786;4.662;2024-03-25T00:35:03;6.56;78.13
82788;DHT22;72529;51.786;4.662;2024-03-25T00:37:29;6.54;78.30
82788;DHT22;72529;51.786;4.662;2024-03-25T00:39:57;6.54;78.55
82788;DHT22;72529;51.786;4.662;2024-03-25T00:42:23;6.55;78.65
82788;DHT22;72529;51.786;4.662;2024-03-25T00:44:48;6.55;78.48
82788;DHT22;72529;51.786;4.662;2024-03-25T00:47:13;6.51;78.69
82788;DHT22;72529;51.786;4.662;2024-03-25T00:49:39;6.56;78.61
82788;DHT22;72529;51.786;4.662;2024-03-25T00:52:04;6.59;78.58
82788;DHT22;72529;51.786;4.662;2024-03-25T00:54:30;6.61;78.45
82788;DHT22;72529;51.786;4.662;2024-03-25T00:56:55;6.55;78.27
82788;DHT22;72529;51.786;4.662;2024-03-25T00:59:21;6.56;78.42
82788;DHT22;72529;51.786;4.662;2024-03-25T01:01:46;6.54;78.35
82788;DHT22;72529;51.786;4.662;2024-03-25T01:04:12;6.54;78.45
82788;DHT22;72529;51.786;4.662;2024-03-25T01:06:38;6.55;78.46
82788;DHT22;72529;51.786;4.662;2024-03-25T01:09:03;6.51;78.49
82788;DHT22;72529;51.786;4.662;2024-03-25T01:11:30;6.55;78.67
82788;DHT22;72529;51.786;4.662;2024-03-25T01:13:56;6.54;78.50
82788;DHT22;72529;51.786;4.662;2024-03-25T01:16:21;6.62;78.18
82788;DHT22;72529;51.786;4.662;2024-03-25T01:18:47;6.61;78.16
82788;DHT22;72529;51.786;4.662;2024-03-25T01:21:12;6.65;78.09
82788;DHT22;72529;51.786;4.662;2024-03-25T01:23:38;6.64;78.06
82788;DHT22;72529;51.786;4.662;2024-03-25T01:26:03;6.64;77.82
82788;DHT22;72529;51.786;4.662;2024-03-25T01:28:29;6.64;77.86
82788;DHT22;72529;51.786;4.662;2024-03-25T01:30:54;6.65;78.07
82788;DHT22;72529;51.786;4.662;2024-03-25T01:33:20;6.69;77.88
82788;DHT22;72529;51.786;4.662;2024-03-25T01:35:45;6.74;77.86
82788;DHT22;72529;51.786;4.662;2024-03-25T01:38:11;6.72;78.00
82788;DHT22;72529;51.786;4.662;2024-03-25T01:40:36;6.69;78.19
82788;DHT22;72529;51.786;4.662;2024-03-25T01:43:03;6.69;78.09
82788;DHT22;72529;51.786;4.662;2024-03-25T01:45:34;6.72;77.91
82788;DHT22;72529;51.786;4.662;2024-03-25T01:48:03;6.74;78.00
82788;DHT22;72529;51.786;4.662;2024-03-25T01:50:35;6.69;77.94
82788;DHT22;72529;51.786;4.662;2024-03-25T01:53:02;6.74;77.97
82788;DHT22;72529;51.786;4.662;2024-03-25T01:58:11;6.72;78.02
82788;DHT22;72529;51.786;4.662;2024-03-25T02:00:36;6.78;78.11
82788;DHT22;72529;51.786;4.662;2024-03-25T02:03:03;6.76;77.88
82788;DHT22;72529;51.786;4.662;2024-03-25T02:05:28;6.69;78.15
82788;DHT22;72529;51.786;4.662;2024-03-25T02:07:55;6.71;78.08
82788;DHT22;72529;51.786;4.662;2024-03-25T02:10:21;6.76;78.18
82788;DHT22;72529;51.786;4.662;2024-03-25T02:12:47;6.74;78.25
82788;DHT22;72529;51.786;4.662;2024-03-25T02:15:13;6.74;78.40
82788;DHT22;72529;51.786;4.662;2024-03-25T02:17:39;6.72;78.21
82788;DHT22;72529;51.786;4.662;2024-03-25T02:20:06;6.71;78.28
82788;DHT22;72529;51.786;4.662;2024-03-25T02:22:34;6.74;78.41
82788;DHT22;72529;51.786;4.662;2024-03-25T02:25:06;6.76;78.27
82788;DHT22;72529;51.786;4.662;2024-03-25T02:27:32;6.76;78.34
82788;DHT22;72529;51.786;4.662;2024-03-25T02:30:06;6.74;78.34
82788;DHT22;72529;51.786;4.662;2024-03-25T02:32:33;6.75;78.29
82788;DHT22;72529;51.786;4.662;2024-03-25T02:34:59;6.75;78.30
82788;DHT22;72529;51.786;4.662;2024-03-25T02:37:25;6.75;78.24
82788;DHT22;72529;51.786;4.662;2024-03-25T02:39:52;6.71;78.10
82788;DHT22;72529;51.786;4.662;2024-03-25T02:42:19;6.68;78.01
82788;DHT22;72529;51.786;4.662;2024-03-25T02:44:45;6.64;77.90
82788;DHT22;72529;51.786;4.662;2024-03-25T02:47:11;6.55;78.03
82788;DHT22;72529;51.786;4.662;2024-03-25T02:49:37;6.49;78.06
82788;DHT22;72529;51.786;4.662;2024-03-25T02:52:02;6.41;78.09
82788;DHT22;72529;51.786;4.662;2024-03-25T02:54:28;6.38;78.07
82788;DHT22;72529;51.786;4.662;2024-03-25T02:56:53;6.34;77.98
82788;DHT22;72529;51.786;4.662;2024-03-25T02:59:18;6.31;78.14
82788;DHT22;72529;51.786;4.662;2024-03-25T03:01:44;6.27;78.41
82788;DHT22;72529;51.786;4.662;2024-03-25T03:04:09;6.25;78.54
82788;DHT22;72529;51.786;4.662;2024-03-25T03:06:35;6.21;78.61
82788;DHT22;72529;51.786;4.662;2024-03-25T03:09:00;6.14;78.60
82788;DHT22;72529;51.786;4.662;2024-03-25T03:11:25;6.11;78.58
82788;DHT22;72529;51.786;4.662;2024-03-25T03:13:51;6.09;78.55
82788;DHT22;72529;51.786;4.662;2024-03-25T03:16:16;6.03;78.65
82788;DHT22;72529;51.786;4.662;2024-03-25T03:18:42;6.01;78.51
82788;DHT22;72529;51.786;4.662;2024-03-25T03:21:07;5.94;78.55
82788;DHT22;72529;51.786;4.662;2024-03-25T03:23:32;5.89;78.73
82788;DHT22;72529;51.786;4.662;2024-03-25T03:25:58;5.86;78.99
82788;DHT22;72529;51.786;4.662;2024-03-25T03:28:25;5.79;78.84
82788;DHT22;72529;51.786;4.662;2024-03-25T03:30:51;5.69;78.80
82788;DHT22;72529;51.786;4.662;2024-03-25T03:33:16;5.69;78.92
82788;DHT22;72529;51.786;4.662;2024-03-25T03:35:42;5.67;78.94
82788;DHT22;72529;51.786;4.662;2024-03-25T03:38:08;5.71;78.97
82788;DHT22;72529;51.786;4.662;2024-03-25T03:40:33;5.62;79.20
82788;DHT22;72529;51.786;4.662;2024-03-25T03:42:58;5.59;79.29
82788;DHT22;72529;51.786;4.662;2024-03-25T03:45:25;5.66;79.18
82788;DHT22;72529;51.786;4.662;2024-03-25T03:47:50;5.60;79.24
82788;DHT22;72529;51.786;4.662;2024-03-25T03:50:16;5.46;79.16
82788;DHT22;72529;51.786;4.662;2024-03-25T03:52:42;5.48;79.32
82788;DHT22;72529;51.786;4.662;2024-03-25T03:55:07;5.45;79.42
82788;DHT22;72529;51.786;4.662;2024-03-25T03:57:32;5.36;79.38
82788;DHT22;72529;51.786;4.662;2024-03-25T03:59:58;5.38;79.37
82788;DHT22;72529;51.786;4.662;2024-03-25T04:02:25;5.31;79.36
82788;DHT22;72529;51.786;4.662;2024-03-25T04:04:51;5.35;79.25
82788;DHT22;72529;51.786;4.662;2024-03-25T04:07:16;5.36;79.21
82788;DHT22;72529;51.786;4.662;2024-03-25T04:09:43;5.38;79.36
82788;DHT22;72529;51.786;4.662;2024-03-25T04:12:08;5.39;79.40
82788;DHT22;72529;51.786;4.662;2024-03-25T04:14:34;5.36;79.47
82788;DHT22;72529;51.786;4.662;2024-03-25T04:16:59;5.35;79.47
82788;DHT22;72529;51.786;4.662;2024-03-25T04:19:26;5.29;79.53
82788;DHT22;72529;51.786;4.662;2024-03-25T04:21:55;5.24;79.91
82788;DHT22;72529;51.786;4.662;2024-03-25T04:24:21;5.25;80.07
82788;DHT22;72529;51.786;4.662;2024-03-25T04:26:50;5.18;80.08
82788;DHT22;72529;51.786;4.662;2024-03-25T04:29:15;5.24;80.06
82788;DHT22;72529;51.786;4.662;2024-03-25T04:31:41;5.25;79.89
82788;DHT22;72529;51.786;4.662;2024-03-25T04:34:06;5.25;79.99
82788;DHT22;72529;51.786;4.662;2024-03-25T04:36:32;5.24;80.07
82788;DHT22;72529;51.786;4.662;2024-03-25T04:38:57;5.26;79.93
82788;DHT22;72529;51.786;4.662;2024-03-25T04:41:23;5.26;79.83
82788;DHT22;72529;51.786;4.662;2024-03-25T04:43:49;5.26;79.77
82788;DHT22;72529;51.786;4.662;2024-03-25T04:46:14;5.28;79.67
82788;DHT22;72529;51.786;4.662;2024-03-25T04:48:39;5.22;79.95
82788;DHT22;72529;51.786;4.662;2024-03-25T04:51:05;5.24;80.00
82788;DHT22;72529;51.786;4.662;2024-03-25T04:53:30;5.19;79.85
82788;DHT22;72529;51.786;4.662;2024-03-25T04:55:56;5.21;79.87
82788;DHT22;72529;51.786;4.662;2024-03-25T04:58:22;5.18;79.86
82788;DHT22;72529;51.786;4.662;2024-03-25T05:00:47;5.24;79.86
82788;DHT22;72529;51.786;4.662;2024-03-25T05:03:13;5.18;80.07
82788;DHT22;72529;51.786;4.662;2024-03-25T05:05:38;5.16;80.04
82788;DHT22;72529;51.786;4.662;2024-03-25T05:08:04;5.18;79.79
82788;DHT22;72529;51.786;4.662;2024-03-25T05:10:29;5.16;79.69
82788;DHT22;72529;51.786;4.662;2024-03-25T05:12:55;5.16;79.72
82788;DHT22;72529;51.786;4.662;2024-03-25T05:15:21;5.18;79.79
82788;DHT22;72529;51.786;4.662;2024-03-25T05:17:46;5.16;79.82
82788;DHT22;72529;51.786;4.662;2024-03-25T05:20:12;5.15;79.68
82788;DHT22;72529;51.786;4.662;2024-03-25T05:22:37;5.09;79.57
82788;DHT22;72529;51.786;4.662;2024-03-25T05:25:03;5.01;79.69
82788;DHT22;72529;51.786;4.662;2024-03-25T05:27:28;4.95;80.01
82788;DHT22;72529;51.786;4.662;2024-03-25T05:29:53;4.98;80.20
82788;DHT22;72529;51.786;4.662;2024-03-25T05:32:19;4.98;80.03
82788;DHT22;72529;51.786;4.662;2024-03-25T05:34:47;4.95;79.96
82788;DHT22;72529;51.786;4.662;2024-03-25T05:37:13;4.96;79.99
82788;DHT22;72529;51.786;4.662;2024-03-25T05:39:39;4.95;79.92
82788;DHT22;72529;51.786;4.662;2024-03-25T05:42:04;4.95;79.89
82788;DHT22;72529;51.786;4.662;2024-03-25T05:44:29;4.92;79.98
82788;DHT22;72529;51.786;4.662;2024-03-25T05:46:55;5.01;79.92
82788;DHT22;72529;51.786;4.662;2024-03-25T05:49:20;5.02;79.82
82788;DHT22;72529;51.786;4.662;2024-03-25T05:51:46;5.01;79.76
82788;DHT22;72529;51.786;4.662;2024-03-25T05:54:11;5.02;79.77
82788;DHT22;72529;51.786;4.662;2024-03-25T05:56:36;4.98;80.03
82788;DHT22;72529;51.786;4.662;2024-03-25T05:59:02;4.96;80.09
82788;DHT22;72529;51.786;4.662;2024-03-25T06:01:28;4.94;80.25
82788;DHT22;72529;51.786;4.662;2024-03-25T06:03:53;4.92;80.35
82788;DHT22;72529;51.786;4.662;2024-03-25T06:06:19;4.92;80.32
82788;DHT22;72529;51.786;4.662;2024-03-25T06:08:45;5.01;80.42
82788;DHT22;72529;51.786;4.662;2024-03-25T06:11:10;5.02;80.48
82788;DHT22;72529;51.786;4.662;2024-03-25T06:13:36;5.07;80.46
82788;DHT22;72529;51.786;4.662;2024-03-25T06:16:01;5.14;80.64
82788;DHT22;72529;51.786;4.662;2024-03-25T06:18:27;5.16;80.76
82788;DHT22;72529;51.786;4.662;2024-03-25T06:20:52;5.19;80.89
82788;DHT22;72529;51.786;4.662;2024-03-25T06:23:28;5.24;81.02
82788;DHT22;72529;51.786;4.662;2024-03-25T06:25:55;5.34;81.25
82788;DHT22;72529;51.786;4.662;2024-03-25T06:28:21;5.39;81.49
82788;DHT22;72529;51.786;4.662;2024-03-25T06:30:47;5.48;81.76
82788;DHT22;72529;51.786;4.662;2024-03-25T06:33:32;5.63;82.12
82788;DHT22;72529;51.786;4.662;2024-03-25T06:36:17;5.76;82.23
82788;DHT22;72529;51.786;4.662;2024-03-25T06:38:43;5.81;82.08
82788;DHT22;72529;51.786;4.662;2024-03-25T06:41:08;5.86;82.15
82788;DHT22;72529;51.786;4.662;2024-03-25T06:43:34;5.91;82.18
82788;DHT22;72529;51.786;4.662;2024-03-25T06:46:00;6.06;82.14
82788;DHT22;72529;51.786;4.662;2024-03-25T06:48:25;6.09;82.32
82788;DHT22;72529;51.786;4.662;2024-03-25T06:50:58;6.20;82.35
82788;DHT22;72529;51.786;4.662;2024-03-25T06:53:24;6.21;82.54
82788;DHT22;72529;51.786;4.662;2024-03-25T06:56:00;6.34;82.56
82788;DHT22;72529;51.786;4.662;2024-03-25T06:58:27;6.42;82.58
82788;DHT22;72529;51.786;4.662;2024-03-25T07:00:54;6.49;82.61
82788;DHT22;72529;51.786;4.662;2024-03-25T07:03:21;6.58;82.76
82788;DHT22;72529;51.786;4.662;2024-03-25T07:05:49;6.71;82.54
82788;DHT22;72529;51.786;4.662;2024-03-25T07:08:15;6.71;82.67
82788;DHT22;72529;51.786;4.662;2024-03-25T07:10:44;6.78;82.76
82788;DHT22;72529;51.786;4.662;2024-03-25T07:13:10;6.84;82.78
82788;DHT22;72529;51.786;4.662;2024-03-25T07:15:36;6.93;82.61
82788;DHT22;72529;51.786;4.662;2024-03-25T07:18:01;7.07;82.62
82788;DHT22;72529;51.786;4.662;2024-03-25T07:20:26;7.15;82.40
82788;DHT22;72529;51.786;4.662;2024-03-25T07:22:53;7.20;82.30
82788;DHT22;72529;51.786;4.662;2024-03-25T07:25:22;7.24;82.15
82788;DHT22;72529;51.786;4.662;2024-03-25T07:27:47;7.31;81.81
82788;DHT22;72529;51.786;4.662;2024-03-25T07:30:14;7.40;81.83
82788;DHT22;72529;51.786;4.662;2024-03-25T07:32:40;7.50;81.67
82788;DHT22;72529;51.786;4.662;2024-03-25T07:35:05;7.51;81.47
82788;DHT22;72529;51.786;4.662;2024-03-25T07:37:33;7.64;81.54
82788;DHT22;72529;51.786;4.662;2024-03-25T07:39:58;7.75;80.88
82788;DHT22;72529;51.786;4.662;2024-03-25T07:42:23;7.80;80.89
82788;DHT22;72529;51.786;4.662;2024-03-25T07:44:49;7.87;80.34
82788;DHT22;72529;51.786;4.662;2024-03-25T07:47:14;7.92;80.66
82788;DHT22;72529;51.786;4.662;2024-03-25T07:49:40;7.90;80.01
82788;DHT22;72529;51.786;4.662;2024-03-25T07:52:06;7.91;80.41
82788;DHT22;72529;51.786;4.662;2024-03-25T07:54:32;7.95;80.50
82788;DHT22;72529;51.786;4.662;2024-03-25T07:56:57;8.06;80.35
82788;DHT22;72529;51.786;4.662;2024-03-25T07:59:23;8.11;80.07
82788;DHT22;72529;51.786;4.662;2024-03-25T08:01:48;8.11;80.12
82788;DHT22;72529;51.786;4.662;2024-03-25T08:04:14;8.22;80.12
82788;DHT22;72529;51.786;4.662;2024-03-25T08:06:39;8.26;79.62
82788;DHT22;72529;51.786;4.662;2024-03-25T08:09:04;8.32;79.97
82788;DHT22;72529;51.786;4.662;2024-03-25T08:11:34;8.49;80.23
82788;DHT22;72529;51.786;4.662;2024-03-25T08:14:00;8.59;79.68
82788;DHT22;72529;51.786;4.662;2024-03-25T08:16:25;8.53;79.49
82788;DHT22;72529;51.786;4.662;2024-03-25T08:18:51;8.59;79.85
82788;DHT22;72529;51.786;4.662;2024-03-25T08:21:17;8.70;79.65
82788;DHT22;72529;51.786;4.662;2024-03-25T08:23:45;8.80;79.82
82788;DHT22;72529;51.786;4.662;2024-03-25T08:26:11;8.80;79.84
82788;DHT22;72529;51.786;4.662;2024-03-25T08:28:37;8.86;79.83
82788;DHT22;72529;51.786;4.662;2024-03-25T08:31:03;8.90;79.35
82788;DHT22;72529;51.786;4.662;2024-03-25T08:33:29;8.93;79.25
82788;DHT22;72529;51.786;4.662;2024-03-25T08:35:55;9.06;79.29
82788;DHT22;72529;51.786;4.662;2024-03-25T08:38:20;9.08;79.07
82788;DHT22;72529;51.786;4.662;2024-03-25T08:40:46;9.10;79.73
82788;DHT22;72529;51.786;4.662;2024-03-25T08:43:12;9.30;79.80
82788;DHT22;72529;51.786;4.662;2024-03-25T08:45:37;9.47;79.28
82788;DHT22;72529;51.786;4.662;2024-03-25T08:48:03;9.54;78.79
82788;DHT22;72529;51.786;4.662;2024-03-25T08:50:29;9.52;78.48
82788;DHT22;72529;51.786;4.662;2024-03-25T08:52:54;9.45;78.33
82788;DHT22;72529;51.786;4.662;2024-03-25T08:55:20;9.45;78.75
82788;DHT22;72529;51.786;4.662;2024-03-25T08:57:45;9.48;78.52
82788;DHT22;72529;51.786;4.662;2024-03-25T09:00:11;9.57;77.82
82788;DHT22;72529;51.786;4.662;2024-03-25T09:02:37;9.59;77.68
82788;DHT22;72529;51.786;4.662;2024-03-25T09:05:03;9.78;77.22
82788;DHT22;72529;51.786;4.662;2024-03-25T09:07:31;9.71;76.95
82788;DHT22;72529;51.786;4.662;2024-03-25T09:09:56;9.70;77.45
82788;DHT22;72529;51.786;4.662;2024-03-25T09:12:40;9.78;76.65
82788;DHT22;72529;51.786;4.662;2024-03-25T09:15:06;9.75;76.72
82788;DHT22;72529;51.786;4.662;2024-03-25T09:17:32;9.68;77.53
82788;DHT22;72529;51.786;4.662;2024-03-25T09:19:57;9.79;77.66
82788;DHT22;72529;51.786;4.662;2024-03-25T09:22:22;9.91;76.67
82788;DHT22;72529;51.786;4.662;2024-03-25T09:24:49;10.05;75.88
82788;DHT22;72529;51.786;4.662;2024-03-25T09:27:15;10.16;76.35
82788;DHT22;72529;51.786;4.662;2024-03-25T09:29:41;10.22;75.71
82788;DHT22;72529;51.786;4.662;2024-03-25T09:32:07;10.35;75.54
82788;DHT22;72529;51.786;4.662;2024-03-25T09:34:32;10.47;75.39
82788;DHT22;72529;51.786;4.662;2024-03-25T09:36:58;10.76;74.83
82788;DHT22;72529;51.786;4.662;2024-03-25T09:39:23;10.67;74.60
82788;DHT22;72529;51.786;4.662;2024-03-25T09:41:50;10.80;74.28
82788;DHT22;72529;51.786;4.662;2024-03-25T09:44:19;10.83;73.03
82788;DHT22;72529;51.786;4.662;2024-03-25T09:46:46;10.88;73.65
82788;DHT22;72529;51.786;4.662;2024-03-25T09:49:12;11.03;71.00
82788;DHT22;72529;51.786;4.662;2024-03-25T09:51:38;11.11;71.73
82788;DHT22;72529;51.786;4.662;2024-03-25T09:54:03;11.35;71.09
82788;DHT22;72529;51.786;4.662;2024-03-25T09:56:30;11.46;70.08
82788;DHT22;72529;51.786;4.662;2024-03-25T09:58:57;11.48;69.23
82788;DHT22;72529;51.786;4.662;2024-03-25T10:01:23;11.52;70.62
82788;DHT22;72529;51.786;4.662;2024-03-25T10:03:48;11.54;70.53
82788;DHT22;72529;51.786;4.662;2024-03-25T10:06:13;11.71;70.91
82788;DHT22;72529;51.786;4.662;2024-03-25T10:08:39;11.85;70.46
82788;DHT22;72529;51.786;4.662;2024-03-25T10:11:04;11.92;69.20
82788;DHT22;72529;51.786;4.662;2024-03-25T10:13:30;12.09;69.88
82788;DHT22;72529;51.786;4.662;2024-03-25T10:15:56;12.32;69.26
82788;DHT22;72529;51.786;4.662;2024-03-25T10:18:21;12.30;67.71
82788;DHT22;72529;51.786;4.662;2024-03-25T10:20:51;12.02;69.21
82788;DHT22;72529;51.786;4.662;2024-03-25T10:23:23;11.87;69.56
82788;DHT22;72529;51.786;4.662;2024-03-25T10:25:49;11.85;70.17
82788;DHT22;72529;51.786;4.662;2024-03-25T10:28:16;12.04;69.45
82788;DHT22;72529;51.786;4.662;2024-03-25T10:30:42;12.27;68.35
82788;DHT22;72529;51.786;4.662;2024-03-25T10:33:08;12.63;68.56
82788;DHT22;72529;51.786;4.662;2024-03-25T10:35:35;12.98;66.98
82788;DHT22;72529;51.786;4.662;2024-03-25T10:38:03;13.01;68.42
82788;DHT22;72529;51.786;4.662;2024-03-25T10:40:35;13.28;66.73
82788;DHT22;72529;51.786;4.662;2024-03-25T10:43:03;13.48;64.28
82788;DHT22;72529;51.786;4.662;2024-03-25T10:45:30;13.58;63.38
82788;DHT22;72529;51.786;4.662;2024-03-25T10:48:50;13.69;62.97
82788;DHT22;72529;51.786;4.662;2024-03-25T10:50:49;13.86;62.94
82788;DHT22;72529;51.786;4.662;2024-03-25T10:53:17;14.04;62.14
82788;DHT22;72529;51.786;4.662;2024-03-25T10:55:46;14.10;61.83
82788;DHT22;72529;51.786;4.662;2024-03-25T10:58:15;14.25;59.14
82788;DHT22;72529;51.786;4.662;2024-03-25T11:00:43;14.27;59.19
82788;DHT22;72529;51.786;4.662;2024-03-25T11:03:09;14.20;60.16
82788;DHT22;72529;51.786;4.662;2024-03-25T11:05:35;14.54;61.03
82788;DHT22;72529;51.786;4.662;2024-03-25T11:08:11;14.65;59.63
82788;DHT22;72529;51.786;4.662;2024-03-25T11:10:41;14.85;59.66
82788;DHT22;72529;51.786;4.662;2024-03-25T11:13:10;15.02;59.06
82788;DHT22;72529;51.786;4.662;2024-03-25T11:15:44;15.08;59.18
82788;DHT22;72529;51.786;4.662;2024-03-25T11:18:13;15.12;59.18
82788;DHT22;72529;51.786;4.662;2024-03-25T11:20:39;15.22;58.51
82788;DHT22;72529;51.786;4.662;2024-03-25T11:23:09;15.28;54.84
82788;DHT22;72529;51.786;4.662;2024-03-25T11:25:37;15.35;56.32
82788;DHT22;72529;51.786;4.662;2024-03-25T11:28:03;15.44;53.88
82788;DHT22;72529;51.786;4.662;2024-03-25T11:30:29;15.56;54.60
82788;DHT22;72529;51.786;4.662;2024-03-25T11:33:00;15.63;53.24
82788;DHT22;72529;51.786;4.662;2024-03-25T11:35:27;15.64;53.48
82788;DHT22;72529;51.786;4.662;2024-03-25T11:37:52;15.73;54.28
82788;DHT22;72529;51.786;4.662;2024-03-25T11:40:18;15.90;52.37
82788;DHT22;72529;51.786;4.662;2024-03-25T11:42:45;15.94;49.31
82788;DHT22;72529;51.786;4.662;2024-03-25T11:45:17;15.90;49.42
82788;DHT22;72529;51.786;4.662;2024-03-25T11:47:44;15.79;49.78
82788;DHT22;72529;51.786;4.662;2024-03-25T11:50:14;15.90;49.90
82788;DHT22;72529;51.786;4.662;2024-03-25T11:52:41;15.73;47.01
82788;DHT22;72529;51.786;4.662;2024-03-25T11:55:07;15.77;49.11
82788;DHT22;72529;51.786;4.662;2024-03-25T11:57:38;15.89;49.26
82788;DHT22;72529;51.786;4.662;2024-03-25T12:00:04;16.15;50.56
82788;DHT22;72529;51.786;4.662;2024-03-25T12:02:31;16.34;49.37
82788;DHT22;72529;51.786;4.662;2024-03-25T12:04:57;16.41;48.36
82788;DHT22;72529;51.786;4.662;2024-03-25T12:07:23;16.47;48.12
82788;DHT22;72529;51.786;4.662;2024-03-25T12:09:49;15.97;48.05
82788;DHT22;72529;51.786;4.662;2024-03-25T12:12:33;15.89;47.66
82788;DHT22;72529;51.786;4.662;2024-03-25T12:15:01;15.80;47.60
82788;DHT22;72529;51.786;4.662;2024-03-25T12:17:29;16.07;47.91
82788;DHT22;72529;51.786;4.662;2024-03-25T12:20:08;16.47;49.90
82788;DHT22;72529;51.786;4.662;2024-03-25T12:22:35;16.73;47.45
82788;DHT22;72529;51.786;4.662;2024-03-25T12:25:03;17.09;45.48
82788;DHT22;72529;51.786;4.662;2024-03-25T12:27:39;17.20;45.20
82788;DHT22;72529;51.786;4.662;2024-03-25T12:30:09;16.72;44.23
82788;DHT22;72529;51.786;4.662;2024-03-25T12:32:44;16.25;46.24
82788;DHT22;72529;51.786;4.662;2024-03-25T12:35:17;15.91;46.10
82788;DHT22;72529;51.786;4.662;2024-03-25T12:37:47;15.84;47.38
82788;DHT22;72529;51.786;4.662;2024-03-25T12:40:25;16.18;47.46
82788;DHT22;72529;51.786;4.662;2024-03-25T12:42:54;16.64;46.17
82788;DHT22;72529;51.786;4.662;2024-03-25T12:45:21;16.93;42.25
82788;DHT22;72529;51.786;4.662;2024-03-25T12:47:46;16.95;42.11
82788;DHT22;72529;51.786;4.662;2024-03-25T12:50:12;16.89;45.78
82788;DHT22;72529;51.786;4.662;2024-03-25T12:52:37;16.93;43.84
82788;DHT22;72529;51.786;4.662;2024-03-25T12:55:03;17.12;42.47
82788;DHT22;72529;51.786;4.662;2024-03-25T12:57:29;16.95;43.98
82788;DHT22;72529;51.786;4.662;2024-03-25T12:59:54;16.99;45.48
82788;DHT22;72529;51.786;4.662;2024-03-25T13:02:20;16.99;42.92
82788;DHT22;72529;51.786;4.662;2024-03-25T13:04:46;16.97;43.55
82788;DHT22;72529;51.786;4.662;2024-03-25T13:07:11;16.72;43.32
82788;DHT22;72529;51.786;4.662;2024-03-25T13:09:36;16.66;44.26
82788;DHT22;72529;51.786;4.662;2024-03-25T13:12:02;16.69;44.07
82788;DHT22;72529;51.786;4.662;2024-03-25T13:14:29;16.83;43.87
82788;DHT22;72529;51.786;4.662;2024-03-25T13:16:55;17.09;42.92
82788;DHT22;72529;51.786;4.662;2024-03-25T13:19:20;17.43;44.67
82788;DHT22;72529;51.786;4.662;2024-03-25T13:21:45;17.29;42.82
82788;DHT22;72529;51.786;4.662;2024-03-25T13:24:11;16.76;42.21
82788;DHT22;72529;51.786;4.662;2024-03-25T13:26:36;16.55;43.39
82788;DHT22;72529;51.786;4.662;2024-03-25T13:29:02;16.65;43.41
82788;DHT22;72529;51.786;4.662;2024-03-25T13:31:28;17.00;44.17
82788;DHT22;72529;51.786;4.662;2024-03-25T13:33:53;17.50;42.22
82788;DHT22;72529;51.786;4.662;2024-03-25T13:36:19;17.63;41.92
82788;DHT22;72529;51.786;4.662;2024-03-25T13:38:45;17.40;42.71
82788;DHT22;72529;51.786;4.662;2024-03-25T13:41:10;17.44;41.15
82788;DHT22;72529;51.786;4.662;2024-03-25T13:43:36;17.24;41.83
82788;DHT22;72529;51.786;4.662;2024-03-25T13:46:01;16.92;43.00
82788;DHT22;72529;51.786;4.662;2024-03-25T13:48:26;16.64;42.54
82788;DHT22;72529;51.786;4.662;2024-03-25T13:50:55;16.17;42.82
82788;DHT22;72529;51.786;4.662;2024-03-25T13:53:20;16.07;44.62
82788;DHT22;72529;51.786;4.662;2024-03-25T13:55:46;16.31;43.19
82788;DHT22;72529;51.786;4.662;2024-03-25T13:58:12;16.66;44.86
82788;DHT22;72529;51.786;4.662;2024-03-25T14:00:37;16.93;44.08
82788;DHT22;72529;51.786;4.662;2024-03-25T14:03:03;16.80;42.64
82788;DHT22;72529;51.786;4.662;2024-03-25T14:05:29;16.40;43.80
82788;DHT22;72529;51.786;4.662;2024-03-25T14:07:54;16.07;43.81
82788;DHT22;72529;51.786;4.662;2024-03-25T14:10:20;16.22;44.08
82788;DHT22;72529;51.786;4.662;2024-03-25T14:12:45;16.72;44.17
82788;DHT22;72529;51.786;4.662;2024-03-25T14:15:11;16.92;42.81
82788;DHT22;72529;51.786;4.662;2024-03-25T14:17:36;16.92;42.49
82788;DHT22;72529;51.786;4.662;2024-03-25T14:20:02;17.26;43.19
82788;DHT22;72529;51.786;4.662;2024-03-25T14:22:31;17.41;41.68
82788;DHT22;72529;51.786;4.662;2024-03-25T14:24:56;17.49;42.73
82788;DHT22;72529;51.786;4.662;2024-03-25T14:27:23;17.54;41.45
82788;DHT22;72529;51.786;4.662;2024-03-25T14:29:49;17.47;41.33
82788;DHT22;72529;51.786;4.662;2024-03-25T14:32:14;17.39;39.61
82788;DHT22;72529;51.786;4.662;2024-03-25T14:34:40;17.31;39.94
82788;DHT22;72529;51.786;4.662;2024-03-25T14:37:05;17.39;40.54
82788;DHT22;72529;51.786;4.662;2024-03-25T14:39:31;17.26;41.97
82788;DHT22;72529;51.786;4.662;2024-03-25T14:41:56;17.37;40.77
82788;DHT22;72529;51.786;4.662;2024-03-25T14:44:22;17.43;41.56
82788;DHT22;72529;51.786;4.662;2024-03-25T14:46:47;17.29;42.12
82788;DHT22;72529;51.786;4.662;2024-03-25T14:49:13;16.85;41.73
82788;DHT22;72529;51.786;4.662;2024-03-25T14:51:38;16.47;43.75
82788;DHT22;72529;51.786;4.662;2024-03-25T14:54:04;16.42;43.83
82788;DHT22;72529;51.786;4.662;2024-03-25T14:56:29;16.26;42.26
82788;DHT22;72529;51.786;4.662;2024-03-25T14:58:55;16.28;42.70
82788;DHT22;72529;51.786;4.662;2024-03-25T15:01:21;16.32;42.81
82788;DHT22;72529;51.786;4.662;2024-03-25T15:03:46;16.45;42.94
82788;DHT22;72529;51.786;4.662;2024-03-25T15:06:13;16.48;41.11
82788;DHT22;72529;51.786;4.662;2024-03-25T15:08:38;16.52;41.95
82788;DHT22;72529;51.786;4.662;2024-03-25T15:11:05;16.65;41.79
82788;DHT22;72529;51.786;4.662;2024-03-25T15:13:31;16.69;42.84
82788;DHT22;72529;51.786;4.662;2024-03-25T15:15:57;16.75;42.40
82788;DHT22;72529;51.786;4.662;2024-03-25T15:18:22;16.90;42.21
82788;DHT22;72529;51.786;4.662;2024-03-25T15:21:04;16.92;41.97
82788;DHT22;72529;51.786;4.662;2024-03-25T15:23:31;16.86;41.37
82788;DHT22;72529;51.786;4.662;2024-03-25T15:25:58;16.82;41.77
82788;DHT22;72529;51.786;4.662;2024-03-25T15:28:24;16.73;41.38
82788;DHT22;72529;51.786;4.662;2024-03-25T15:30:50;16.48;41.28
82788;DHT22;72529;51.786;4.662;2024-03-25T15:33:16;16.34;42.61
82788;DHT22;72529;51.786;4.662;2024-03-25T15:35:43;16.29;42.91
82788;DHT22;72529;51.786;4.662;2024-03-25T15:38:08;16.26;43.63